Time;durP1;ratioP1;P1;durP2;ratioP2;P2;SDS_P1;SDS_P2;PMS_P1;PMS_P2;Temp;Humidity;BMP_temperature;BMP_pressure;BME280_temperature;BME280_humidity;BME280_pressure;Samples;Min_cycle;Max_cycle;Signal;HPM_P1;HPM_P2
2024/02/18 00:01:17;;;;;;;11.85;5.13;;;10.90;99.90;;;;;;5096065;28;20505;-86
2024/02/18 00:03:44;;;;;;;16.85;4.78;;;11.20;99.90;;;;;;5081340;28;20025;-86
2024/02/18 00:06:13;;;;;;;10.10;4.80;;;11.70;99.90;;;;;;5076072;28;20063;-86
2024/02/18 00:08:41;;;;;;;18.08;4.85;;;11.20;99.90;;;;;;5074806;28;20025;-87
2024/02/18 00:11:07;;;;;;;14.02;5.18;;;11.20;99.90;;;;;;5072322;28;20020;-88
2024/02/18 00:13:34;;;;;;;9.80;4.85;;;11.70;99.90;;;;;;5072599;28;20384;-87
2024/02/18 00:15:59;;;;;;;10.30;5.20;;;11.20;99.90;;;;;;5073019;28;20029;-86
2024/02/18 00:18:25;;;;;;;15.38;5.63;;;11.20;99.90;;;;;;5086042;28;20054;-86
2024/02/18 00:20:50;;;;;;;12.45;4.68;;;11.20;99.90;;;;;;5093047;28;20103;-86
2024/02/18 00:23:19;;;;;;;10.45;5.15;;;11.80;99.90;;;;;;5092596;28;20016;-88
2024/02/18 00:25:44;;;;;;;10.27;4.80;;;11.80;99.90;;;;;;5092003;28;20056;-87
2024/02/18 00:28:10;;;;;;;10.30;5.72;;;12.00;99.90;;;;;;5092656;28;20105;-87
2024/02/18 00:30:35;;;;;;;11.93;4.90;;;11.20;99.90;;;;;;5092660;28;20024;-86
2024/02/18 00:33:01;;;;;;;10.40;5.07;;;11.90;99.90;;;;;;5091881;28;20028;-87
2024/02/18 00:35:27;;;;;;;12.52;5.57;;;11.10;99.90;;;;;;5087289;28;20031;-88
2024/02/18 00:37:52;;;;;;;11.45;4.90;;;11.20;99.90;;;;;;5092309;28;20516;-87
2024/02/18 00:40:18;;;;;;;8.23;5.20;;;11.20;99.90;;;;;;5075485;28;20048;-88
2024/02/18 00:42:44;;;;;;;16.30;6.05;;;11.20;99.90;;;;;;5075121;28;20016;-87
2024/02/18 00:45:10;;;;;;;13.00;5.82;;;11.20;99.90;;;;;;5088224;28;20020;-88
2024/02/18 00:47:35;;;;;;;13.80;5.30;;;11.20;99.90;;;;;;5078066;28;20089;-87
2024/02/18 00:50:01;;;;;;;11.13;5.15;;;11.20;99.90;;;;;;5092224;28;20032;-87
2024/02/18 00:52:26;;;;;;;13.55;5.38;;;11.60;99.90;;;;;;5091872;28;20024;-87
2024/02/18 00:54:52;;;;;;;12.25;5.40;;;11.20;99.90;;;;;;5091536;28;20028;-87
2024/02/18 00:57:17;;;;;;;13.48;5.03;;;11.20;99.90;;;;;;5092321;28;20012;-88
2024/02/18 00:59:43;;;;;;;11.25;5.10;;;11.20;99.90;;;;;;5094439;28;20479;-88
2024/02/18 01:02:08;;;;;;;10.10;5.10;;;11.20;99.90;;;;;;5092116;28;20024;-87
2024/02/18 01:04:34;;;;;;;20.73;6.10;;;11.20;99.90;;;;;;5112408;28;20027;-87
2024/02/18 01:06:59;;;;;;;8.10;4.80;;;11.20;99.90;;;;;;5087931;28;20027;-88
2024/02/18 01:09:25;;;;;;;10.93;4.93;;;11.20;99.90;;;;;;5074516;28;20062;-87
2024/02/18 01:11:51;;;;;;;11.52;4.97;;;11.20;99.90;;;;;;5094332;28;20020;-87
2024/02/18 01:14:17;;;;;;;12.48;4.93;;;11.20;99.90;;;;;;5096378;28;20467;-86
2024/02/18 01:16:42;;;;;;;8.45;4.60;;;11.30;99.90;;;;;;5094295;28;20027;-87
2024/02/18 01:19:08;;;;;;;9.48;5.35;;;11.30;99.90;;;;;;5076014;28;20024;-88
2024/02/18 01:21:33;;;;;;;12.45;4.90;;;11.30;99.90;;;;;;5075413;28;20040;-88
2024/02/18 01:23:59;;;;;;;15.98;4.78;;;11.30;99.90;;;;;;5102159;28;20024;-88
2024/02/18 01:26:24;;;;;;;9.05;4.80;;;11.30;99.90;;;;;;5084820;28;20107;-87
2024/02/18 01:28:50;;;;;;;10.25;4.65;;;11.30;99.90;;;;;;5095019;28;20509;-88
2024/02/18 01:31:15;;;;;;;10.88;4.65;;;11.30;99.90;;;;;;5095946;28;20442;-88
2024/02/18 01:33:43;;;;;;;12.73;4.97;;;11.30;99.90;;;;;;5096137;28;20016;-89
2024/02/18 01:36:08;;;;;;;10.15;4.50;;;11.30;99.90;;;;;;5095248;28;20058;-86
2024/02/18 01:38:35;;;;;;;15.20;4.90;;;11.90;99.90;;;;;;5095559;28;20052;-87
2024/02/18 01:41:03;;;;;;;11.90;4.25;;;11.30;99.90;;;;;;5093160;28;20040;-88
2024/02/18 01:43:29;;;;;;;8.35;4.05;;;11.30;99.90;;;;;;5097933;28;20103;-88
2024/02/18 01:45:55;;;;;;;11.13;4.45;;;11.60;99.90;;;;;;5096244;28;20035;-89
2024/02/18 01:48:23;;;;;;;8.80;4.22;;;11.50;99.90;;;;;;5082495;28;20020;-90
2024/02/18 01:50:48;;;;;;;15.82;5.32;;;11.50;99.90;;;;;;5092771;28;20079;-89
2024/02/18 01:53:15;;;;;;;7.32;4.38;;;11.30;99.90;;;;;;5079257;28;20051;-89
2024/02/18 01:55:42;;;;;;;7.32;4.35;;;11.40;99.90;;;;;;5080510;28;20032;-90
2024/02/18 01:58:08;;;;;;;15.85;5.00;;;12.00;99.90;;;;;;5074902;28;20021;-89
2024/02/18 02:00:38;;;;;;;8.20;4.32;;;11.40;99.90;;;;;;5075441;28;20037;-88
2024/02/18 02:03:04;;;;;;;11.43;4.20;;;11.30;99.90;;;;;;5091012;28;20032;-88
2024/02/18 02:05:31;;;;;;;11.32;4.47;;;11.40;99.90;;;;;;5093865;28;20107;-88
2024/02/18 02:07:57;;;;;;;8.00;4.10;;;11.70;99.90;;;;;;5076861;28;20086;-89
2024/02/18 02:10:23;;;;;;;10.02;4.03;;;11.40;99.90;;;;;;5083947;28;20028;-88
2024/02/18 02:12:49;;;;;;;13.23;4.80;;;11.50;99.90;;;;;;5074752;28;20020;-89
2024/02/18 02:15:15;;;;;;;16.35;5.38;;;11.30;99.90;;;;;;5074692;28;20047;-89
2024/02/18 02:17:50;;;;;;;9.82;4.60;;;11.40;99.90;;;;;;5081585;28;20459;-87
2024/02/18 02:20:15;;;;;;;7.97;3.92;;;12.00;99.90;;;;;;5094725;28;20514;-88
2024/02/18 02:22:41;;;;;;;10.45;3.75;;;11.90;99.90;;;;;;5094805;28;20028;-88
2024/02/18 02:25:10;;;;;;;10.20;3.38;;;12.00;99.90;;;;;;5094543;28;20039;-90
2024/02/18 02:27:41;;;;;;;7.50;3.78;;;11.50;99.90;;;;;;5110982;28;20114;-88
2024/02/18 02:30:07;;;;;;;7.95;3.17;;;11.90;99.90;;;;;;5097323;28;20033;-89
2024/02/18 02:32:35;;;;;;;11.93;4.43;;;11.40;99.90;;;;;;5077864;28;20024;-89
2024/02/18 02:35:02;;;;;;;10.05;3.60;;;11.30;99.90;;;;;;5094968;28;20036;-89
2024/02/18 02:37:28;;;;;;;9.10;3.42;;;11.30;99.90;;;;;;5095156;28;20539;-88
2024/02/18 02:39:54;;;;;;;17.27;4.20;;;11.30;99.90;;;;;;5094156;28;20083;-88
2024/02/18 02:42:19;;;;;;;10.10;3.88;;;11.30;99.90;;;;;;5094942;28;20063;-89
2024/02/18 02:44:45;;;;;;;11.18;3.63;;;11.30;99.90;;;;;;5094827;28;20042;-87
2024/02/18 02:47:11;;;;;;;11.57;4.50;;;11.40;99.90;;;;;;5096358;28;20050;-87
2024/02/18 02:49:36;;;;;;;5.70;3.10;;;12.10;99.90;;;;;;5096991;28;20535;-87
2024/02/18 02:52:02;;;;;;;8.75;3.95;;;11.50;99.90;;;;;;5105432;28;20039;-87
2024/02/18 02:54:28;;;;;;;10.98;3.80;;;11.30;99.90;;;;;;5093623;28;20463;-87
2024/02/18 02:56:53;;;;;;;9.15;3.17;;;11.30;99.90;;;;;;5094003;28;20020;-88
2024/02/18 02:59:19;;;;;;;5.97;2.97;;;11.50;99.90;;;;;;5093982;28;20506;-88
2024/02/18 03:01:45;;;;;;;7.75;3.53;;;11.60;99.90;;;;;;5093927;28;20028;-86
2024/02/18 03:04:13;;;;;;;11.95;3.95;;;11.20;99.90;;;;;;5094625;28;20027;-89
2024/02/18 03:06:39;;;;;;;8.63;3.30;;;11.20;99.90;;;;;;5093704;28;20020;-88
2024/02/18 03:09:05;;;;;;;7.80;3.92;;;11.90;99.90;;;;;;5093713;28;20077;-88
2024/02/18 03:11:30;;;;;;;6.05;3.35;;;11.50;99.90;;;;;;5094646;28;20027;-88
2024/02/18 03:13:56;;;;;;;12.23;3.35;;;11.20;99.90;;;;;;5093694;28;20059;-89
2024/02/18 03:16:24;;;;;;;9.10;3.13;;;11.90;99.90;;;;;;5096506;28;20035;-88
2024/02/18 03:18:50;;;;;;;5.45;3.22;;;11.60;99.90;;;;;;5088083;28;20115;-88
2024/02/18 03:21:15;;;;;;;10.95;3.58;;;11.50;99.90;;;;;;5093261;28;20139;-89
2024/02/18 03:23:42;;;;;;;13.52;3.95;;;11.10;99.90;;;;;;5079921;28;20075;-89
2024/02/18 03:26:08;;;;;;;7.68;3.22;;;11.10;99.90;;;;;;5074227;28;20028;-89
2024/02/18 03:28:34;;;;;;;13.38;4.13;;;11.80;99.90;;;;;;5088747;28;20024;-87
2024/02/18 03:31:00;;;;;;;9.20;3.78;;;11.20;99.90;;;;;;5094192;28;20113;-88
2024/02/18 03:33:25;;;;;;;8.75;3.03;;;11.70;99.90;;;;;;5093014;28;20032;-88
2024/02/18 03:35:51;;;;;;;9.90;3.90;;;11.00;99.90;;;;;;5089797;28;20032;-88
2024/02/18 03:38:16;;;;;;;8.32;3.35;;;11.00;99.90;;;;;;5086723;28;20119;-88
2024/02/18 03:40:42;;;;;;;7.53;3.40;;;11.30;99.90;;;;;;5095129;28;20079;-89
2024/02/18 03:43:08;;;;;;;10.35;4.07;;;11.00;99.90;;;;;;5099136;28;20102;-89
2024/02/18 03:45:34;;;;;;;7.55;2.92;;;11.00;99.90;;;;;;5093375;28;20035;-90
2024/02/18 03:47:59;;;;;;;9.25;3.25;;;11.20;99.90;;;;;;5094513;28;20479;-89
2024/02/18 03:50:27;;;;;;;12.90;3.65;;;10.90;99.90;;;;;;5090246;28;20056;-89
2024/02/18 03:52:52;;;;;;;7.78;3.42;;;10.90;99.90;;;;;;5074060;28;20028;-89
2024/02/18 03:55:18;;;;;;;11.77;3.50;;;10.90;99.90;;;;;;5073919;28;20024;-88
2024/02/18 03:57:45;;;;;;;7.13;2.78;;;10.90;99.90;;;;;;5073340;28;20024;-89
2024/02/18 04:00:11;;;;;;;11.63;3.45;;;10.90;99.90;;;;;;5083750;28;20130;-88
2024/02/18 04:02:38;;;;;;;9.73;3.00;;;10.90;99.90;;;;;;5073584;28;20024;-87
2024/02/18 04:05:11;;;;;;;4.95;2.85;;;10.80;99.90;;;;;;5073056;28;20387;-89
2024/02/18 04:07:37;;;;;;;11.45;3.25;;;10.90;99.90;;;;;;5087717;28;20016;-90
2024/02/18 04:10:04;;;;;;;12.45;3.47;;;11.00;99.90;;;;;;5093259;28;20519;-87
2024/02/18 04:12:31;;;;;;;12.63;2.92;;;10.90;99.90;;;;;;5093751;28;20103;-88
2024/02/18 04:14:56;;;;;;;11.05;2.95;;;10.90;99.90;;;;;;5093779;28;20032;-89
2024/02/18 04:17:24;;;;;;;10.45;2.70;;;11.60;99.90;;;;;;5093017;28;20410;-89
2024/02/18 04:19:49;;;;;;;5.80;2.80;;;10.90;99.90;;;;;;5090049;28;20132;-90
2024/02/18 04:22:15;;;;;;;9.25;2.95;;;10.80;99.90;;;;;;5079533;28;20048;-90
2024/02/18 04:24:40;;;;;;;7.10;2.88;;;10.90;99.90;;;;;;5092422;28;20028;-89
2024/02/18 04:27:10;;;;;;;7.50;2.75;;;10.80;99.90;;;;;;5093926;28;20017;-88
2024/02/18 04:29:39;;;;;;;8.85;3.33;;;10.80;99.90;;;;;;5093788;28;20024;-89
2024/02/18 04:32:05;;;;;;;12.65;3.42;;;10.80;99.90;;;;;;5093789;28;20027;-90
2024/02/18 04:34:31;;;;;;;7.75;2.88;;;10.80;99.90;;;;;;5100334;28;20028;-88
2024/02/18 04:36:57;;;;;;;12.00;2.83;;;10.80;99.90;;;;;;5103673;28;20101;-89
2024/02/18 04:39:23;;;;;;;14.25;3.60;;;10.80;99.90;;;;;;5092465;28;20433;-86
2024/02/18 04:41:49;;;;;;;8.52;3.22;;;10.80;99.90;;;;;;5091760;28;20059;-87
2024/02/18 04:44:15;;;;;;;8.10;3.17;;;11.50;99.90;;;;;;5071697;28;20468;-87
2024/02/18 04:46:40;;;;;;;6.65;2.60;;;10.80;99.90;;;;;;5084353;28;20030;-87
2024/02/18 04:49:06;;;;;;;7.93;2.72;;;10.70;99.90;;;;;;5087017;28;20020;-87
2024/02/18 04:51:31;;;;;;;7.13;2.67;;;10.70;99.90;;;;;;5092797;28;20061;-87
2024/02/18 04:53:57;;;;;;;8.93;3.30;;;10.70;99.90;;;;;;5092621;28;20028;-85
2024/02/18 04:56:22;;;;;;;12.07;3.38;;;10.70;99.90;;;;;;5092306;28;20050;-87
2024/02/18 04:58:48;;;;;;;15.98;3.38;;;10.70;99.90;;;;;;5095123;28;20101;-86
2024/02/18 05:01:26;;;;;;;9.18;3.42;;;10.70;99.90;;;;;;5085679;28;20052;-87
2024/02/18 05:03:55;;;;;;;9.50;3.17;;;10.60;99.90;;;;;;5092221;28;20020;-87
2024/02/18 05:06:20;;;;;;;8.40;3.05;;;11.20;99.90;;;;;;5089619;28;20059;-89
2024/02/18 05:08:46;;;;;;;10.68;3.85;;;10.70;99.90;;;;;;5084183;28;20471;-84
2024/02/18 05:11:11;;;;;;;9.82;3.17;;;11.00;99.90;;;;;;5087675;28;20024;-86
2024/02/18 05:13:37;;;;;;;12.18;2.95;;;10.70;99.90;;;;;;5084432;28;20025;-86
2024/02/18 05:16:02;;;;;;;11.70;3.75;;;11.30;99.90;;;;;;5071535;28;20044;-85
2024/02/18 05:18:40;;;;;;;10.63;3.22;;;10.70;99.90;;;;;;5090926;28;20036;-85
2024/02/18 05:21:06;;;;;;;16.98;3.60;;;10.70;99.90;;;;;;5084550;28;20097;-84
2024/02/18 05:23:35;;;;;;;11.68;3.80;;;10.70;99.90;;;;;;5071599;28;20029;-86
2024/02/18 05:26:02;;;;;;;13.40;4.30;;;10.70;99.90;;;;;;5093354;28;20526;-85
2024/02/18 05:28:27;;;;;;;14.07;3.35;;;10.70;99.90;;;;;;5089000;28;20267;-85
2024/02/18 05:30:53;;;;;;;7.72;3.30;;;10.70;99.90;;;;;;5075443;28;20025;-85
2024/02/18 05:33:19;;;;;;;13.23;4.07;;;10.60;99.90;;;;;;5073157;28;20021;-87
2024/02/18 05:35:47;;;;;;;9.48;3.22;;;10.60;99.90;;;;;;5071271;28;20159;-85
2024/02/18 05:38:13;;;;;;;8.77;3.10;;;10.60;99.90;;;;;;5088276;28;20157;-85
2024/02/18 05:40:38;;;;;;;7.05;3.00;;;11.20;99.90;;;;;;5091487;28;20127;-86
2024/02/18 05:43:04;;;;;;;12.60;3.50;;;10.60;99.90;;;;;;5091362;28;20024;-85
2024/02/18 05:45:31;;;;;;;7.93;3.30;;;12.00;99.90;;;;;;5091896;28;20031;-84
2024/02/18 05:47:57;;;;;;;11.65;3.50;;;10.60;99.90;;;;;;5091912;28;20028;-86
2024/02/18 05:50:22;;;;;;;12.65;3.67;;;10.60;99.90;;;;;;5086396;28;20035;-85
2024/02/18 05:52:48;;;;;;;11.18;4.05;;;10.60;99.90;;;;;;5086076;28;20376;-86
2024/02/18 05:55:14;;;;;;;6.50;3.70;;;10.50;99.90;;;;;;5072473;28;20029;-86
2024/02/18 05:57:39;;;;;;;8.63;3.28;;;11.20;99.90;;;;;;5074184;28;20024;-86
2024/02/18 06:00:05;;;;;;;9.68;3.17;;;10.50;99.90;;;;;;5075194;28;20032;-85
2024/02/18 06:02:31;;;;;;;6.97;3.75;;;10.50;99.90;;;;;;5074693;28;20030;-87
2024/02/18 06:04:56;;;;;;;11.75;3.22;;;10.60;99.90;;;;;;5074804;28;20111;-87
2024/02/18 06:07:22;;;;;;;8.00;2.97;;;10.80;99.90;;;;;;5075014;28;20021;-86
2024/02/18 06:09:48;;;;;;;8.32;3.50;;;10.50;99.90;;;;;;5074780;28;20172;-87
2024/02/18 06:12:14;;;;;;;8.43;3.30;;;10.40;99.90;;;;;;5102459;28;20035;-86
2024/02/18 06:14:40;;;;;;;9.02;3.17;;;10.40;99.90;;;;;;5093226;27;20024;-87
2024/02/18 06:17:05;;;;;;;11.82;3.50;;;10.40;99.90;;;;;;5095137;28;20073;-85
2024/02/18 06:19:31;;;;;;;13.82;3.58;;;10.40;99.90;;;;;;5084297;28;20024;-90
2024/02/18 06:21:56;;;;;;;9.85;3.05;;;10.40;99.90;;;;;;5080401;28;20463;-89
2024/02/18 06:24:27;;;;;;;6.90;3.03;;;11.00;99.90;;;;;;5107169;28;20043;-89
2024/02/18 06:26:53;;;;;;;6.90;2.60;;;11.10;99.90;;;;;;5095638;28;20207;-89
2024/02/18 06:29:18;;;;;;;7.78;3.20;;;10.40;99.90;;;;;;5095087;28;20020;-88
2024/02/18 06:31:44;;;;;;;13.60;2.97;;;10.40;99.90;;;;;;5095886;28;20031;-88
2024/02/18 06:34:09;;;;;;;11.18;3.20;;;10.40;99.90;;;;;;5087992;28;20059;-88
2024/02/18 06:36:50;;;;;;;8.32;2.97;;;10.60;99.90;;;;;;5094163;28;20082;-87
2024/02/18 06:39:15;;;;;;;9.60;3.45;;;10.60;99.90;;;;;;5073243;28;20044;-87
2024/02/18 06:41:41;;;;;;;13.82;3.55;;;10.40;99.90;;;;;;5074583;28;20047;-88
2024/02/18 06:44:06;;;;;;;9.77;3.20;;;10.40;99.90;;;;;;5087771;28;20020;-88
2024/02/18 06:46:32;;;;;;;10.38;3.20;;;10.40;99.90;;;;;;5094187;28;20032;-87
2024/02/18 06:48:58;;;;;;;11.90;3.65;;;10.30;99.90;;;;;;5094754;28;20044;-87
2024/02/18 06:51:23;;;;;;;11.77;3.58;;;10.30;99.90;;;;;;5094592;28;20020;-87
2024/02/18 06:53:49;;;;;;;8.90;3.08;;;10.30;99.90;;;;;;5093862;28;20405;-88
2024/02/18 06:56:18;;;;;;;12.98;4.13;;;10.30;99.90;;;;;;5099566;28;20028;-86
2024/02/18 06:58:43;;;;;;;11.48;2.97;;;10.30;99.90;;;;;;5094921;28;20074;-87
2024/02/18 07:01:09;;;;;;;12.15;3.53;;;10.30;99.90;;;;;;5093812;28;20039;-88
2024/02/18 07:03:46;;;;;;;10.07;3.33;;;10.30;99.90;;;;;;5093959;28;20055;-87
2024/02/18 07:06:12;;;;;;;9.63;3.08;;;11.30;99.90;;;;;;5093438;28;20024;-88
2024/02/18 07:08:37;;;;;;;12.75;4.25;;;10.30;99.90;;;;;;5093718;28;20417;-86
2024/02/18 07:11:03;;;;;;;9.23;3.28;;;10.30;99.90;;;;;;5093657;28;20063;-87
2024/02/18 07:13:31;;;;;;;10.40;2.83;;;10.30;99.90;;;;;;5093411;28;20024;-86
2024/02/18 07:15:57;;;;;;;5.85;3.35;;;10.30;99.90;;;;;;5093993;28;20028;-86
2024/02/18 07:18:22;;;;;;;5.63;2.75;;;10.30;99.90;;;;;;5099287;28;20035;-87
2024/02/18 07:20:48;;;;;;;10.80;3.25;;;10.30;99.90;;;;;;5093932;28;20079;-87
2024/02/18 07:23:13;;;;;;;10.52;3.58;;;10.30;99.90;;;;;;5076899;28;20028;-88
2024/02/18 07:25:42;;;;;;;12.13;3.13;;;10.30;99.90;;;;;;5074729;28;20036;-87
2024/02/18 07:28:07;;;;;;;6.75;3.35;;;10.30;99.90;;;;;;5088834;28;20532;-86
2024/02/18 07:30:33;;;;;;;17.73;3.70;;;10.30;99.90;;;;;;5093732;28;20028;-87
2024/02/18 07:32:59;;;;;;;10.85;2.88;;;10.20;99.90;;;;;;5089299;28;20496;-87
2024/02/18 07:35:24;;;;;;;14.95;3.17;;;10.20;99.90;;;;;;5072399;28;20463;-87
2024/02/18 07:37:50;;;;;;;11.02;4.05;;;10.20;99.90;;;;;;5083364;28;20024;-89
2024/02/18 07:40:15;;;;;;;9.35;3.50;;;10.20;99.90;;;;;;5086779;28;20407;-87
2024/02/18 07:42:43;;;;;;;12.18;3.80;;;10.20;99.90;;;;;;5085023;28;20020;-88
2024/02/18 07:45:09;;;;;;;9.45;3.00;;;10.20;99.90;;;;;;5093677;28;20562;-88
2024/02/18 07:47:34;;;;;;;6.55;3.05;;;10.20;99.90;;;;;;5092706;28;20065;-86
2024/02/18 07:50:00;;;;;;;8.25;2.67;;;10.20;99.90;;;;;;5074117;28;20029;-87
2024/02/18 07:52:25;;;;;;;9.25;2.80;;;10.10;99.90;;;;;;5072595;28;20029;-87
2024/02/18 07:54:51;;;;;;;5.05;2.83;;;10.20;99.90;;;;;;5089959;28;20136;-87
2024/02/18 07:57:17;;;;;;;7.88;3.13;;;10.60;99.90;;;;;;5086361;28;20044;-87
2024/02/18 07:59:42;;;;;;;7.43;2.58;;;10.10;99.90;;;;;;5079473;28;20040;-87
2024/02/18 08:02:08;;;;;;;13.15;3.38;;;10.10;99.90;;;;;;5082451;28;20024;-86
2024/02/18 08:04:34;;;;;;;12.60;3.25;;;10.10;99.90;;;;;;5091396;28;20023;-89
2024/02/18 08:06:59;;;;;;;17.42;3.67;;;10.10;99.90;;;;;;5092942;28;20020;-86
2024/02/18 08:09:25;;;;;;;9.75;3.45;;;10.10;99.90;;;;;;5091864;28;20423;-87
2024/02/18 08:11:50;;;;;;;9.18;3.08;;;10.10;99.90;;;;;;5100383;28;20028;-87
2024/02/18 08:14:16;;;;;;;10.27;3.25;;;10.10;99.90;;;;;;5093370;28;20027;-87
2024/02/18 08:16:41;;;;;;;7.53;2.70;;;10.10;99.90;;;;;;5092007;28;20020;-87
2024/02/18 08:19:07;;;;;;;7.25;2.75;;;10.10;99.90;;;;;;5092830;28;20022;-86
2024/02/18 08:21:39;;;;;;;9.13;2.95;;;10.10;99.90;;;;;;5090327;28;20459;-88
2024/02/18 08:24:05;;;;;;;10.07;2.67;;;10.10;99.90;;;;;;5086687;28;20035;-88
2024/02/18 08:26:30;;;;;;;11.70;3.88;;;10.10;99.90;;;;;;5078582;28;20024;-93
2024/02/18 08:28:56;;;;;;;16.98;2.85;;;10.10;99.90;;;;;;5092080;28;20464;-87
2024/02/18 08:31:21;;;;;;;7.88;3.22;;;10.20;99.90;;;;;;5091719;28;20051;-87
2024/02/18 08:33:48;;;;;;;8.50;3.08;;;10.20;99.90;;;;;;5090170;28;20059;-87
2024/02/18 08:36:14;;;;;;;13.13;3.30;;;10.10;99.90;;;;;;5095953;28;20028;-86
2024/02/18 08:38:40;;;;;;;10.00;2.45;;;10.20;99.90;;;;;;5100006;28;20058;-87
2024/02/18 08:41:06;;;;;;;16.15;2.90;;;10.20;99.90;;;;;;5103267;28;20497;-86
2024/02/18 08:43:35;;;;;;;9.10;2.92;;;10.20;99.90;;;;;;5100704;28;20051;-88
2024/02/18 08:46:01;;;;;;;13.93;3.92;;;10.30;99.90;;;;;;5096833;28;20024;-88
2024/02/18 08:48:27;;;;;;;14.20;3.70;;;10.30;99.90;;;;;;5100842;28;20020;-85
2024/02/18 08:50:52;;;;;;;6.05;2.90;;;10.20;99.90;;;;;;5102251;28;20020;-86
2024/02/18 08:53:18;;;;;;;5.78;2.80;;;10.20;99.90;;;;;;5104612;28;20023;-87
2024/02/18 08:55:43;;;;;;;11.57;3.50;;;10.30;99.90;;;;;;5112633;28;20019;-86
2024/02/18 08:58:09;;;;;;;12.25;3.42;;;10.30;99.90;;;;;;5112353;28;20032;-86
2024/02/18 09:00:35;;;;;;;12.18;3.13;;;10.30;99.90;;;;;;5111193;28;20039;-88
2024/02/18 09:03:00;;;;;;;13.15;3.20;;;10.30;99.90;;;;;;5112556;28;20016;-88
2024/02/18 09:05:26;;;;;;;14.73;4.35;;;10.30;99.90;;;;;;5104832;28;20039;-86
2024/02/18 09:07:52;;;;;;;8.75;2.75;;;10.30;99.90;;;;;;5089223;28;20016;-86
2024/02/18 09:10:18;;;;;;;8.15;3.22;;;10.30;99.90;;;;;;5089865;28;20362;-87
2024/02/18 09:12:43;;;;;;;10.10;3.22;;;10.30;99.90;;;;;;5079289;28;20138;-88
2024/02/18 09:15:09;;;;;;;9.45;2.78;;;10.30;99.90;;;;;;5101871;28;20047;-89
2024/02/18 09:17:36;;;;;;;8.13;3.03;;;10.30;99.90;;;;;;5102194;28;20016;-89
2024/02/18 09:20:02;;;;;;;8.82;3.47;;;10.30;99.90;;;;;;5101698;28;20028;-84
2024/02/18 09:22:28;;;;;;;9.55;3.00;;;10.30;99.90;;;;;;5102557;28;20016;-87
2024/02/18 09:24:54;;;;;;;14.93;3.42;;;10.30;99.90;;;;;;5097549;28;20495;-93
2024/02/18 09:27:20;;;;;;;7.13;3.30;;;10.30;99.90;;;;;;5075052;28;20075;-89
2024/02/18 09:29:45;;;;;;;6.25;2.88;;;10.20;99.90;;;;;;5077285;28;20021;-87
2024/02/18 09:32:11;;;;;;;9.50;3.95;;;10.30;99.90;;;;;;5096922;28;20028;-91
2024/02/18 09:34:37;;;;;;;9.75;3.13;;;10.30;99.90;;;;;;5096850;28;20032;-91
2024/02/18 09:37:03;;;;;;;9.95;3.83;;;10.60;99.90;;;;;;5097574;28;20095;-89
2024/02/18 09:39:28;;;;;;;11.32;3.42;;;10.30;99.90;;;;;;5095734;28;20383;-89
2024/02/18 09:41:58;;;;;;;6.90;2.97;;;10.90;99.90;;;;;;5095954;28;20048;-91
2024/02/18 09:44:27;;;;;;;9.65;3.33;;;10.20;99.90;;;;;;5090624;28;20021;-90
2024/02/18 09:46:53;;;;;;;10.27;2.88;;;10.40;99.90;;;;;;5082673;28;20030;-91
2024/02/18 09:49:20;;;;;;;11.00;3.03;;;10.20;99.90;;;;;;5083649;28;20024;-94
2024/02/18 09:51:48;;;;;;;7.97;3.15;;;10.20;99.90;;;;;;5092226;28;20475;-93
2024/02/18 09:54:32;;;;;;;10.75;2.88;;;10.50;99.90;;;;;;5096743;28;20055;-92
2024/02/18 09:56:57;;;;;;;12.48;3.85;;;10.20;99.90;;;;;;5096865;28;20032;-91
2024/02/18 09:59:23;;;;;;;9.90;3.42;;;10.20;99.90;;;;;;5109076;28;20013;-87
2024/02/18 10:01:52;;;;;;;6.53;3.30;;;10.20;99.90;;;;;;5096155;28;20082;-87
2024/02/18 10:04:18;;;;;;;8.25;3.33;;;10.20;99.90;;;;;;5095524;28;20024;-87
2024/02/18 10:06:43;;;;;;;7.72;3.42;;;10.20;99.90;;;;;;5095412;28;20034;-87
2024/02/18 10:09:09;;;;;;;13.10;3.78;;;10.10;99.90;;;;;;5103356;28;20403;-86
2024/02/18 10:11:36;;;;;;;12.48;3.88;;;10.10;99.90;;;;;;5090322;28;20025;-86
2024/02/18 10:14:02;;;;;;;9.48;3.25;;;10.10;99.90;;;;;;5074615;28;20052;-85
2024/02/18 10:16:27;;;;;;;9.00;3.50;;;10.10;99.90;;;;;;5087127;28;20489;-88
2024/02/18 10:18:53;;;;;;;12.45;3.90;;;10.10;99.90;;;;;;5095186;28;20032;-87
2024/02/18 10:21:19;;;;;;;10.65;3.78;;;10.10;99.90;;;;;;5083614;28;20051;-86
2024/02/18 10:23:46;;;;;;;15.70;4.05;;;10.10;99.90;;;;;;5074886;28;20464;-86
2024/02/18 10:26:12;;;;;;;7.43;3.20;;;10.20;99.90;;;;;;5075665;28;20040;-89
2024/02/18 10:28:41;;;;;;;10.00;4.28;;;10.10;99.90;;;;;;5099975;28;20024;-89
2024/02/18 10:31:09;;;;;;;9.25;4.05;;;10.20;99.90;;;;;;5094582;28;20043;-89
2024/02/18 10:33:35;;;;;;;11.05;4.10;;;10.10;99.90;;;;;;5074943;28;20032;-88
2024/02/18 10:36:06;;;;;;;6.70;4.05;;;10.10;99.90;;;;;;5077307;28;20021;-87
2024/02/18 10:38:33;;;;;;;10.80;4.07;;;10.10;99.90;;;;;;5094547;28;20028;-88
2024/02/18 10:41:03;;;;;;;10.35;4.03;;;10.10;99.90;;;;;;5095136;28;20479;-89
2024/02/18 10:43:32;;;;;;;9.23;4.10;;;10.10;99.90;;;;;;5094141;28;20040;-90
2024/02/18 10:46:00;;;;;;;6.47;3.50;;;10.10;99.90;;;;;;5088131;28;20020;-90
2024/02/18 10:48:28;;;;;;;7.55;3.92;;;10.10;99.90;;;;;;5084349;28;20028;-93
2024/02/18 10:50:54;;;;;;;13.88;3.95;;;10.00;99.90;;;;;;5094513;28;20092;-91
2024/02/18 10:53:31;;;;;;;7.97;4.60;;;10.50;99.90;;;;;;5090268;28;20037;-91
2024/02/18 10:56:11;;;;;;;6.65;3.70;;;10.00;99.90;;;;;;5089285;28;20483;-87
2024/02/18 10:59:04;;;;;;;12.35;4.13;;;10.00;99.90;;;;;;5106033;28;20128;-88
2024/02/18 11:01:37;;;;;;;11.05;4.53;;;10.00;99.90;;;;;;5083047;28;20577;-91
2024/02/18 11:04:07;;;;;;;9.45;5.57;;;10.00;99.90;;;;;;5097596;28;20371;-89
2024/02/18 11:06:35;;;;;;;8.53;5.53;;;10.20;99.90;;;;;;5094333;28;20038;-90
2024/02/18 11:09:01;;;;;;;7.25;4.25;;;9.90;99.90;;;;;;5095647;28;20016;-89
2024/02/18 11:11:27;;;;;;;6.75;4.53;;;9.90;99.90;;;;;;5103776;28;20023;-89
2024/02/18 11:13:53;;;;;;;6.20;4.15;;;10.10;99.90;;;;;;5101645;28;20077;-90
2024/02/18 11:16:20;;;;;;;8.80;4.45;;;9.90;99.90;;;;;;5111947;28;20522;-89
2024/02/18 11:18:47;;;;;;;7.65;3.65;;;9.90;99.90;;;;;;5103814;28;20032;-90
2024/02/18 11:21:14;;;;;;;7.88;4.13;;;9.90;99.90;;;;;;5097197;27;20036;-89
2024/02/18 11:23:47;;;;;;;6.50;3.80;;;9.90;99.90;;;;;;5106293;28;20016;-89
2024/02/18 11:26:13;;;;;;;10.70;5.72;;;9.80;99.90;;;;;;5101966;28;20440;-88
2024/02/18 11:28:38;;;;;;;7.15;3.65;;;9.90;99.90;;;;;;5094483;28;20103;-89
2024/02/18 11:31:04;;;;;;;9.88;3.97;;;9.90;99.90;;;;;;5095059;28;20016;-88
2024/02/18 11:33:32;;;;;;;9.02;4.50;;;9.90;99.90;;;;;;5093396;28;20031;-86
2024/02/18 11:36:13;;;;;;;7.00;4.25;;;9.90;99.90;;;;;;5089572;28;20037;-85
2024/02/18 11:38:44;;;;;;;5.95;3.28;;;10.00;99.90;;;;;;5094049;28;20026;-87
2024/02/18 11:41:17;;;;;;;7.38;3.53;;;10.10;99.90;;;;;;5100804;28;20056;-87
2024/02/18 11:43:42;;;;;;;4.40;2.88;;;9.90;99.90;;;;;;5099152;28;20020;-85
2024/02/18 11:46:19;;;;;;;4.47;3.20;;;10.00;99.90;;;;;;5116226;28;20028;-86
2024/02/18 11:48:45;;;;;;;6.55;2.95;;;9.90;99.90;;;;;;5103914;28;20411;-89
2024/02/18 11:51:11;;;;;;;6.35;2.47;;;9.90;99.90;;;;;;5105155;28;20028;-90
2024/02/18 11:53:37;;;;;;;5.07;2.65;;;9.90;99.90;;;;;;5094500;28;20096;-91
2024/02/18 11:56:03;;;;;;;11.05;3.05;;;10.00;99.90;;;;;;5093207;28;20028;-88
2024/02/18 11:58:29;;;;;;;6.72;3.28;;;9.90;99.90;;;;;;5111467;28;20037;-87
2024/02/18 12:00:54;;;;;;;6.90;3.22;;;10.00;99.90;;;;;;5093850;28;20110;-86
2024/02/18 12:03:23;;;;;;;5.13;2.47;;;10.00;99.90;;;;;;5071471;28;20024;-86
2024/02/18 12:05:50;;;;;;;5.60;3.33;;;9.90;99.90;;;;;;5071473;28;20469;-86
2024/02/18 12:08:16;;;;;;;5.22;2.83;;;10.00;99.90;;;;;;5071544;28;20052;-85
2024/02/18 12:10:41;;;;;;;5.10;2.97;;;10.00;99.90;;;;;;5081602;28;20124;-87
2024/02/18 12:13:07;;;;;;;4.45;3.33;;;10.00;99.90;;;;;;5092929;28;20016;-87
2024/02/18 12:15:32;;;;;;;4.82;2.72;;;9.90;99.90;;;;;;5080242;28;20107;-87
2024/02/18 12:18:01;;;;;;;6.78;2.83;;;10.00;99.90;;;;;;5090089;28;20028;-86
2024/02/18 12:20:27;;;;;;;3.38;2.97;;;10.00;99.90;;;;;;5092642;28;20020;-84
2024/02/18 12:22:56;;;;;;;3.65;2.78;;;10.00;99.90;;;;;;5085161;28;20037;-88
2024/02/18 12:25:22;;;;;;;5.75;2.50;;;9.90;99.90;;;;;;5078114;28;20035;-84
2024/02/18 12:27:48;;;;;;;3.92;2.78;;;10.40;99.90;;;;;;5097865;28;20016;-85
2024/02/18 12:30:14;;;;;;;4.13;3.13;;;10.00;99.90;;;;;;5101978;28;20073;-85
2024/02/18 12:32:40;;;;;;;4.25;3.00;;;9.90;99.90;;;;;;5102560;28;20387;-85
2024/02/18 12:35:06;;;;;;;6.75;3.72;;;10.00;99.90;;;;;;5100685;28;20032;-85
2024/02/18 12:37:32;;;;;;;3.55;2.97;;;10.00;99.90;;;;;;5092791;28;20040;-84
2024/02/18 12:39:58;;;;;;;5.00;3.22;;;10.00;99.90;;;;;;5083604;28;20095;-84